sensor_id;sensor_type;location;lat;lon;timestamp;P1;durP1;ratioP1;P2;durP2;ratioP2
75417;SDS011;63997;52.112;5.420;2023-01-26T00:00:55;81.57;;;24.73;;
75417;SDS011;63997;52.112;5.420;2023-01-26T00:03:21;86.53;;;27.38;;
75417;SDS011;63997;52.112;5.420;2023-01-26T00:05:48;92.85;;;26.55;;
75417;SDS011;63997;52.112;5.420;2023-01-26T00:08:14;72.22;;;23.67;;
75417;SDS011;63997;52.112;5.420;2023-01-26T00:10:41;79.77;;;26.63;;
75417;SDS011;63997;52.112;5.420;2023-01-26T00:13:17;76.18;;;23.77;;
75417;SDS011;63997;52.112;5.420;2023-01-26T00:15:45;70.05;;;23.75;;
75417;SDS011;63997;52.112;5.420;2023-01-26T00:18:11;79.28;;;24.38;;
75417;SDS011;63997;52.112;5.420;2023-01-26T00:20:38;75.97;;;23.63;;
75417;SDS011;63997;52.112;5.420;2023-01-26T00:23:04;69.07;;;22.23;;
75417;SDS011;63997;52.112;5.420;2023-01-26T00:25:30;73.90;;;24.50;;
75417;SDS011;63997;52.112;5.420;2023-01-26T00:27:57;67.10;;;22.45;;
75417;SDS011;63997;52.112;5.420;2023-01-26T00:30:23;64.75;;;22.63;;
75417;SDS011;63997;52.112;5.420;2023-01-26T00:32:50;72.15;;;24.25;;
75417;SDS011;63997;52.112;5.420;2023-01-26T00:35:16;68.03;;;22.47;;
75417;SDS011;63997;52.112;5.420;2023-01-26T00:37:42;63.53;;;20.73;;
75417;SDS011;63997;52.112;5.420;2023-01-26T00:40:09;76.97;;;23.05;;
75417;SDS011;63997;52.112;5.420;2023-01-26T00:42:36;66.60;;;21.77;;
75417;SDS011;63997;52.112;5.420;2023-01-26T00:45:02;71.18;;;21.42;;
75417;SDS011;63997;52.112;5.420;2023-01-26T00:47:29;71.60;;;23.60;;
75417;SDS011;63997;52.112;5.420;2023-01-26T00:49:55;59.50;;;19.77;;
75417;SDS011;63997;52.112;5.420;2023-01-26T00:52:22;68.00;;;22.20;;
75417;SDS011;63997;52.112;5.420;2023-01-26T00:54:48;64.10;;;21.10;;
75417;SDS011;63997;52.112;5.420;2023-01-26T00:57:14;62.70;;;22.13;;
75417;SDS011;63997;52.112;5.420;2023-01-26T00:59:41;66.90;;;20.53;;
75417;SDS011;63997;52.112;5.420;2023-01-26T01:02:07;63.75;;;20.33;;
75417;SDS011;63997;52.112;5.420;2023-01-26T01:04:34;54.58;;;18.95;;
75417;SDS011;63997;52.112;5.420;2023-01-26T01:07:00;60.05;;;18.67;;
75417;SDS011;63997;52.112;5.420;2023-01-26T01:09:26;51.83;;;17.55;;
75417;SDS011;63997;52.112;5.420;2023-01-26T01:11:53;48.57;;;17.50;;
75417;SDS011;63997;52.112;5.420;2023-01-26T01:14:19;52.65;;;18.48;;
75417;SDS011;63997;52.112;5.420;2023-01-26T01:16:46;56.05;;;18.90;;
75417;SDS011;63997;52.112;5.420;2023-01-26T01:19:13;51.90;;;17.60;;
75417;SDS011;63997;52.112;5.420;2023-01-26T01:21:41;45.35;;;15.63;;
75417;SDS011;63997;52.112;5.420;2023-01-26T01:24:08;53.23;;;18.90;;
75417;SDS011;63997;52.112;5.420;2023-01-26T01:26:35;60.83;;;18.17;;
75417;SDS011;63997;52.112;5.420;2023-01-26T01:29:02;50.97;;;16.30;;
75417;SDS011;63997;52.112;5.420;2023-01-26T01:31:29;57.75;;;17.85;;
75417;SDS011;63997;52.112;5.420;2023-01-26T01:33:56;49.60;;;18.75;;
75417;SDS011;63997;52.112;5.420;2023-01-26T01:36:23;60.83;;;20.97;;
75417;SDS011;63997;52.112;5.420;2023-01-26T01:38:49;59.63;;;19.17;;
75417;SDS011;63997;52.112;5.420;2023-01-26T01:41:18;51.22;;;18.83;;
75417;SDS011;63997;52.112;5.420;2023-01-26T01:43:48;60.40;;;18.95;;
75417;SDS011;63997;52.112;5.420;2023-01-26T01:46:16;61.13;;;19.02;;
75417;SDS011;63997;52.112;5.420;2023-01-26T01:48:52;53.17;;;16.43;;
75417;SDS011;63997;52.112;5.420;2023-01-26T01:51:36;58.95;;;18.35;;
75417;SDS011;63997;52.112;5.420;2023-01-26T01:54:09;57.58;;;17.90;;
75417;SDS011;63997;52.112;5.420;2023-01-26T01:56:39;55.83;;;20.00;;
75417;SDS011;63997;52.112;5.420;2023-01-26T01:59:10;52.95;;;17.40;;
75417;SDS011;63997;52.112;5.420;2023-01-26T02:01:38;58.23;;;18.30;;
75417;SDS011;63997;52.112;5.420;2023-01-26T02:04:05;46.45;;;16.58;;
75417;SDS011;63997;52.112;5.420;2023-01-26T02:06:46;46.28;;;17.02;;
75417;SDS011;63997;52.112;5.420;2023-01-26T02:09:16;51.55;;;18.08;;
75417;SDS011;63997;52.112;5.420;2023-01-26T02:12:04;49.95;;;17.00;;
75417;SDS011;63997;52.112;5.420;2023-01-26T02:14:33;50.87;;;18.17;;
75417;SDS011;63997;52.112;5.420;2023-01-26T02:16:59;55.72;;;18.38;;
75417;SDS011;63997;52.112;5.420;2023-01-26T02:19:36;48.13;;;16.40;;
75417;SDS011;63997;52.112;5.420;2023-01-26T02:22:17;49.47;;;17.58;;
75417;SDS011;63997;52.112;5.420;2023-01-26T02:24:54;54.05;;;18.60;;
75417;SDS011;63997;52.112;5.420;2023-01-26T02:27:24;54.30;;;18.17;;
75417;SDS011;63997;52.112;5.420;2023-01-26T02:29:50;51.15;;;16.17;;
75417;SDS011;63997;52.112;5.420;2023-01-26T02:32:18;50.65;;;16.17;;
75417;SDS011;63997;52.112;5.420;2023-01-26T02:34:44;51.53;;;17.75;;
75417;SDS011;63997;52.112;5.420;2023-01-26T02:37:13;48.70;;;17.02;;
75417;SDS011;63997;52.112;5.420;2023-01-26T02:39:43;46.07;;;16.07;;
75417;SDS011;63997;52.112;5.420;2023-01-26T02:42:14;50.80;;;17.95;;
75417;SDS011;63997;52.112;5.420;2023-01-26T02:45:00;50.70;;;17.02;;
75417;SDS011;63997;52.112;5.420;2023-01-26T02:47:26;47.08;;;16.13;;
75417;SDS011;63997;52.112;5.420;2023-01-26T02:49:52;51.67;;;16.95;;
75417;SDS011;63997;52.112;5.420;2023-01-26T02:52:20;50.03;;;17.17;;
75417;SDS011;63997;52.112;5.420;2023-01-26T02:54:48;49.03;;;16.65;;
75417;SDS011;63997;52.112;5.420;2023-01-26T02:57:33;56.25;;;16.85;;
75417;SDS011;63997;52.112;5.420;2023-01-26T03:00:00;55.45;;;18.90;;
75417;SDS011;63997;52.112;5.420;2023-01-26T03:02:27;54.03;;;16.83;;
75417;SDS011;63997;52.112;5.420;2023-01-26T03:04:54;48.87;;;17.03;;
75417;SDS011;63997;52.112;5.420;2023-01-26T03:07:20;48.00;;;17.70;;
75417;SDS011;63997;52.112;5.420;2023-01-26T03:09:47;55.65;;;18.45;;
75417;SDS011;63997;52.112;5.420;2023-01-26T03:12:13;54.70;;;18.45;;
75417;SDS011;63997;52.112;5.420;2023-01-26T03:14:39;54.97;;;18.38;;
75417;SDS011;63997;52.112;5.420;2023-01-26T03:17:06;47.97;;;16.77;;
75417;SDS011;63997;52.112;5.420;2023-01-26T03:19:32;54.63;;;17.88;;
75417;SDS011;63997;52.112;5.420;2023-01-26T03:22:17;54.85;;;17.70;;
75417;SDS011;63997;52.112;5.420;2023-01-26T03:25:02;51.15;;;17.40;;
75417;SDS011;63997;52.112;5.420;2023-01-26T03:27:47;49.47;;;15.93;;
75417;SDS011;63997;52.112;5.420;2023-01-26T03:30:15;51.67;;;17.33;;
75417;SDS011;63997;52.112;5.420;2023-01-26T03:32:43;54.22;;;17.52;;
75417;SDS011;63997;52.112;5.420;2023-01-26T03:35:10;51.05;;;16.30;;
75417;SDS011;63997;52.112;5.420;2023-01-26T03:37:47;50.47;;;17.00;;
75417;SDS011;63997;52.112;5.420;2023-01-26T03:40:20;53.47;;;18.75;;
75417;SDS011;63997;52.112;5.420;2023-01-26T03:43:08;52.30;;;16.87;;
75417;SDS011;63997;52.112;5.420;2023-01-26T03:45:53;48.60;;;16.60;;
75417;SDS011;63997;52.112;5.420;2023-01-26T03:48:38;42.88;;;14.32;;
75417;SDS011;63997;52.112;5.420;2023-01-26T03:51:22;43.03;;;15.27;;
75417;SDS011;63997;52.112;5.420;2023-01-26T03:54:07;43.97;;;16.52;;
75417;SDS011;63997;52.112;5.420;2023-01-26T03:56:52;45.87;;;16.43;;
75417;SDS011;63997;52.112;5.420;2023-01-26T03:59:18;44.70;;;15.30;;
75417;SDS011;63997;52.112;5.420;2023-01-26T04:02:06;42.40;;;15.85;;
75417;SDS011;63997;52.112;5.420;2023-01-26T04:04:52;40.25;;;13.00;;
75417;SDS011;63997;52.112;5.420;2023-01-26T04:07:38;49.33;;;16.50;;
75417;SDS011;63997;52.112;5.420;2023-01-26T04:10:23;41.90;;;15.03;;
75417;SDS011;63997;52.112;5.420;2023-01-26T04:12:50;42.45;;;13.98;;
75417;SDS011;63997;52.112;5.420;2023-01-26T04:15:35;40.55;;;13.70;;
75417;SDS011;63997;52.112;5.420;2023-01-26T04:18:21;38.70;;;14.27;;
75417;SDS011;63997;52.112;5.420;2023-01-26T04:21:06;36.13;;;13.75;;
75417;SDS011;63997;52.112;5.420;2023-01-26T04:23:54;43.00;;;16.50;;
75417;SDS011;63997;52.112;5.420;2023-01-26T04:26:23;44.92;;;14.93;;
75417;SDS011;63997;52.112;5.420;2023-01-26T04:28:50;43.85;;;15.63;;
75417;SDS011;63997;52.112;5.420;2023-01-26T04:31:17;45.70;;;14.60;;
75417;SDS011;63997;52.112;5.420;2023-01-26T04:33:43;45.05;;;15.40;;
75417;SDS011;63997;52.112;5.420;2023-01-26T04:36:10;45.00;;;15.07;;
75417;SDS011;63997;52.112;5.420;2023-01-26T04:38:36;46.08;;;14.73;;
75417;SDS011;63997;52.112;5.420;2023-01-26T04:41:02;42.22;;;14.73;;
75417;SDS011;63997;52.112;5.420;2023-01-26T04:43:29;41.47;;;14.48;;
75417;SDS011;63997;52.112;5.420;2023-01-26T04:45:59;36.88;;;13.27;;
75417;SDS011;63997;52.112;5.420;2023-01-26T04:48:27;39.37;;;13.80;;
75417;SDS011;63997;52.112;5.420;2023-01-26T04:50:55;44.22;;;14.40;;
75417;SDS011;63997;52.112;5.420;2023-01-26T04:53:22;37.45;;;14.18;;
75417;SDS011;63997;52.112;5.420;2023-01-26T04:55:50;42.78;;;14.45;;
75417;SDS011;63997;52.112;5.420;2023-01-26T04:58:16;46.83;;;16.40;;
75417;SDS011;63997;52.112;5.420;2023-01-26T05:00:44;42.47;;;14.27;;
75417;SDS011;63997;52.112;5.420;2023-01-26T05:03:15;38.67;;;13.82;;
75417;SDS011;63997;52.112;5.420;2023-01-26T05:05:41;42.63;;;14.38;;
75417;SDS011;63997;52.112;5.420;2023-01-26T05:08:07;38.55;;;13.75;;
75417;SDS011;63997;52.112;5.420;2023-01-26T05:10:34;38.63;;;13.63;;
75417;SDS011;63997;52.112;5.420;2023-01-26T05:13:00;45.30;;;14.93;;
75417;SDS011;63997;52.112;5.420;2023-01-26T05:15:27;37.53;;;13.55;;
75417;SDS011;63997;52.112;5.420;2023-01-26T05:17:53;36.67;;;14.65;;
75417;SDS011;63997;52.112;5.420;2023-01-26T05:20:19;38.58;;;13.73;;
75417;SDS011;63997;52.112;5.420;2023-01-26T05:22:46;41.20;;;14.57;;
75417;SDS011;63997;52.112;5.420;2023-01-26T05:25:12;39.23;;;14.57;;
75417;SDS011;63997;52.112;5.420;2023-01-26T05:27:38;40.08;;;13.85;;
75417;SDS011;63997;52.112;5.420;2023-01-26T05:30:05;42.55;;;13.80;;
75417;SDS011;63997;52.112;5.420;2023-01-26T05:32:32;38.80;;;14.52;;
75417;SDS011;63997;52.112;5.420;2023-01-26T05:34:58;33.78;;;12.65;;
75417;SDS011;63997;52.112;5.420;2023-01-26T05:37:25;38.90;;;14.17;;
75417;SDS011;63997;52.112;5.420;2023-01-26T05:39:52;34.70;;;13.20;;
75417;SDS011;63997;52.112;5.420;2023-01-26T05:42:19;35.70;;;13.07;;
75417;SDS011;63997;52.112;5.420;2023-01-26T05:44:46;35.60;;;13.20;;
75417;SDS011;63997;52.112;5.420;2023-01-26T05:47:12;40.72;;;14.45;;
75417;SDS011;63997;52.112;5.420;2023-01-26T05:49:39;39.23;;;14.17;;
75417;SDS011;63997;52.112;5.420;2023-01-26T05:52:08;37.08;;;13.68;;
75417;SDS011;63997;52.112;5.420;2023-01-26T05:54:36;40.90;;;14.52;;
75417;SDS011;63997;52.112;5.420;2023-01-26T05:57:02;43.75;;;13.60;;
75417;SDS011;63997;52.112;5.420;2023-01-26T05:59:29;45.22;;;14.18;;
75417;SDS011;63997;52.112;5.420;2023-01-26T06:01:56;41.77;;;15.07;;
75417;SDS011;63997;52.112;5.420;2023-01-26T06:04:23;42.83;;;14.27;;
75417;SDS011;63997;52.112;5.420;2023-01-26T06:06:53;37.85;;;13.13;;
75417;SDS011;63997;52.112;5.420;2023-01-26T06:09:21;37.08;;;13.07;;
75417;SDS011;63997;52.112;5.420;2023-01-26T06:11:47;42.17;;;13.15;;
75417;SDS011;63997;52.112;5.420;2023-01-26T06:14:14;36.20;;;13.23;;
75417;SDS011;63997;52.112;5.420;2023-01-26T06:16:41;44.53;;;14.20;;
75417;SDS011;63997;52.112;5.420;2023-01-26T06:19:08;39.05;;;14.38;;
75417;SDS011;63997;52.112;5.420;2023-01-26T06:21:35;37.88;;;14.50;;
75417;SDS011;63997;52.112;5.420;2023-01-26T06:24:02;38.38;;;13.63;;
75417;SDS011;63997;52.112;5.420;2023-01-26T06:26:29;46.90;;;14.63;;
75417;SDS011;63997;52.112;5.420;2023-01-26T06:28:55;45.25;;;14.60;;
75417;SDS011;63997;52.112;5.420;2023-01-26T06:31:22;39.90;;;13.40;;
75417;SDS011;63997;52.112;5.420;2023-01-26T06:33:49;39.17;;;13.88;;
75417;SDS011;63997;52.112;5.420;2023-01-26T06:36:16;42.05;;;15.77;;
75417;SDS011;63997;52.112;5.420;2023-01-26T06:38:49;33.70;;;12.80;;
75417;SDS011;63997;52.112;5.420;2023-01-26T06:41:16;40.13;;;13.60;;
75417;SDS011;63997;52.112;5.420;2023-01-26T06:43:46;41.80;;;13.93;;
75417;SDS011;63997;52.112;5.420;2023-01-26T06:46:14;38.10;;;12.95;;
75417;SDS011;63997;52.112;5.420;2023-01-26T06:48:41;34.15;;;12.43;;
75417;SDS011;63997;52.112;5.420;2023-01-26T06:53:47;39.63;;;14.55;;
75417;SDS011;63997;52.112;5.420;2023-01-26T06:56:17;42.22;;;14.63;;
75417;SDS011;63997;52.112;5.420;2023-01-26T06:58:44;45.35;;;14.20;;
75417;SDS011;63997;52.112;5.420;2023-01-26T07:01:18;36.75;;;12.82;;
75417;SDS011;63997;52.112;5.420;2023-01-26T07:03:46;36.57;;;12.80;;
75417;SDS011;63997;52.112;5.420;2023-01-26T07:06:13;42.33;;;13.68;;
75417;SDS011;63997;52.112;5.420;2023-01-26T07:08:40;38.05;;;14.02;;
75417;SDS011;63997;52.112;5.420;2023-01-26T07:11:07;34.92;;;12.93;;
75417;SDS011;63997;52.112;5.420;2023-01-26T07:13:34;37.40;;;13.35;;
75417;SDS011;63997;52.112;5.420;2023-01-26T07:16:04;41.47;;;15.63;;
75417;SDS011;63997;52.112;5.420;2023-01-26T07:18:32;39.38;;;14.13;;
75417;SDS011;63997;52.112;5.420;2023-01-26T07:21:06;40.28;;;13.63;;
75417;SDS011;63997;52.112;5.420;2023-01-26T07:23:35;37.65;;;13.50;;
75417;SDS011;63997;52.112;5.420;2023-01-26T07:26:01;43.78;;;15.32;;
75417;SDS011;63997;52.112;5.420;2023-01-26T07:28:28;36.43;;;13.13;;
75417;SDS011;63997;52.112;5.420;2023-01-26T07:30:59;44.88;;;14.35;;
75417;SDS011;63997;52.112;5.420;2023-01-26T07:33:27;37.58;;;12.40;;
75417;SDS011;63997;52.112;5.420;2023-01-26T07:35:55;36.22;;;12.50;;
75417;SDS011;63997;52.112;5.420;2023-01-26T07:38:22;38.58;;;13.15;;
75417;SDS011;63997;52.112;5.420;2023-01-26T07:40:49;38.70;;;12.97;;
75417;SDS011;63997;52.112;5.420;2023-01-26T07:43:16;38.92;;;13.50;;
75417;SDS011;63997;52.112;5.420;2023-01-26T07:45:46;30.95;;;12.23;;
75417;SDS011;63997;52.112;5.420;2023-01-26T07:48:13;40.60;;;12.63;;
75417;SDS011;63997;52.112;5.420;2023-01-26T07:50:40;43.22;;;13.68;;
75417;SDS011;63997;52.112;5.420;2023-01-26T07:53:07;47.53;;;15.00;;
75417;SDS011;63997;52.112;5.420;2023-01-26T07:55:34;34.20;;;11.48;;
75417;SDS011;63997;52.112;5.420;2023-01-26T07:58:01;47.00;;;13.98;;
75417;SDS011;63997;52.112;5.420;2023-01-26T08:00:27;40.72;;;14.02;;
75417;SDS011;63997;52.112;5.420;2023-01-26T08:02:53;46.85;;;13.98;;
75417;SDS011;63997;52.112;5.420;2023-01-26T08:05:20;45.57;;;14.00;;
75417;SDS011;63997;52.112;5.420;2023-01-26T08:07:46;44.67;;;13.07;;
75417;SDS011;63997;52.112;5.420;2023-01-26T08:10:13;43.28;;;12.77;;
75417;SDS011;63997;52.112;5.420;2023-01-26T08:12:39;47.50;;;13.52;;
75417;SDS011;63997;52.112;5.420;2023-01-26T08:15:13;41.30;;;13.25;;
75417;SDS011;63997;52.112;5.420;2023-01-26T08:17:39;50.50;;;13.65;;
75417;SDS011;63997;52.112;5.420;2023-01-26T08:20:06;43.07;;;12.83;;
75417;SDS011;63997;52.112;5.420;2023-01-26T08:22:33;43.10;;;13.93;;
75417;SDS011;63997;52.112;5.420;2023-01-26T08:24:59;39.70;;;12.63;;
75417;SDS011;63997;52.112;5.420;2023-01-26T08:27:26;51.90;;;13.27;;
75417;SDS011;63997;52.112;5.420;2023-01-26T08:29:52;43.08;;;15.23;;
75417;SDS011;63997;52.112;5.420;2023-01-26T08:32:18;41.90;;;13.37;;
75417;SDS011;63997;52.112;5.420;2023-01-26T08:34:45;47.83;;;14.48;;
75417;SDS011;63997;52.112;5.420;2023-01-26T08:37:11;49.97;;;14.18;;
75417;SDS011;63997;52.112;5.420;2023-01-26T08:39:38;48.08;;;13.18;;
75417;SDS011;63997;52.112;5.420;2023-01-26T08:42:04;45.38;;;14.80;;
75417;SDS011;63997;52.112;5.420;2023-01-26T08:44:30;52.73;;;14.93;;
75417;SDS011;63997;52.112;5.420;2023-01-26T08:46:57;41.67;;;13.00;;
75417;SDS011;63997;52.112;5.420;2023-01-26T08:49:23;43.50;;;13.10;;
75417;SDS011;63997;52.112;5.420;2023-01-26T08:51:50;37.65;;;13.40;;
75417;SDS011;63997;52.112;5.420;2023-01-26T08:54:16;50.97;;;13.50;;
75417;SDS011;63997;52.112;5.420;2023-01-26T08:56:42;56.90;;;14.93;;
75417;SDS011;63997;52.112;5.420;2023-01-26T08:59:09;49.03;;;13.98;;
75417;SDS011;63997;52.112;5.420;2023-01-26T09:01:35;38.55;;;12.63;;
75417;SDS011;63997;52.112;5.420;2023-01-26T09:04:02;40.70;;;12.85;;
75417;SDS011;63997;52.112;5.420;2023-01-26T09:06:28;46.17;;;13.77;;
75417;SDS011;63997;52.112;5.420;2023-01-26T09:08:57;51.57;;;13.67;;
75417;SDS011;63997;52.112;5.420;2023-01-26T09:11:24;42.00;;;13.75;;
75417;SDS011;63997;52.112;5.420;2023-01-26T09:13:50;48.13;;;13.00;;
75417;SDS011;63997;52.112;5.420;2023-01-26T09:16:24;48.58;;;12.45;;
75417;SDS011;63997;52.112;5.420;2023-01-26T09:18:51;41.33;;;12.60;;
75417;SDS011;63997;52.112;5.420;2023-01-26T09:21:18;39.23;;;12.33;;
75417;SDS011;63997;52.112;5.420;2023-01-26T09:23:45;37.17;;;11.70;;
75417;SDS011;63997;52.112;5.420;2023-01-26T09:26:12;41.30;;;12.68;;
75417;SDS011;63997;52.112;5.420;2023-01-26T09:28:38;39.72;;;11.88;;
75417;SDS011;63997;52.112;5.420;2023-01-26T09:31:06;31.65;;;10.57;;
75417;SDS011;63997;52.112;5.420;2023-01-26T09:33:34;31.80;;;10.23;;
75417;SDS011;63997;52.112;5.420;2023-01-26T09:36:07;36.33;;;11.40;;
75417;SDS011;63997;52.112;5.420;2023-01-26T09:38:36;34.25;;;10.10;;
75417;SDS011;63997;52.112;5.420;2023-01-26T09:43:39;41.47;;;9.68;;
75417;SDS011;63997;52.112;5.420;2023-01-26T09:46:22;30.67;;;8.67;;
75417;SDS011;63997;52.112;5.420;2023-01-26T09:51:35;34.25;;;8.85;;
75417;SDS011;63997;52.112;5.420;2023-01-26T09:56:53;32.08;;;8.15;;
75417;SDS011;63997;52.112;5.420;2023-01-26T09:59:27;27.27;;;8.63;;
75417;SDS011;63997;52.112;5.420;2023-01-26T10:04:39;26.05;;;6.15;;
75417;SDS011;63997;52.112;5.420;2023-01-26T10:07:09;27.52;;;5.45;;
75417;SDS011;63997;52.112;5.420;2023-01-26T10:09:38;21.30;;;5.78;;
75417;SDS011;63997;52.112;5.420;2023-01-26T10:12:15;18.03;;;5.47;;
75417;SDS011;63997;52.112;5.420;2023-01-26T10:17:59;23.20;;;4.65;;
75417;SDS011;63997;52.112;5.420;2023-01-26T10:20:30;20.52;;;4.30;;
75417;SDS011;63997;52.112;5.420;2023-01-26T10:23:09;18.55;;;3.78;;
75417;SDS011;63997;52.112;5.420;2023-01-26T10:25:41;20.40;;;2.93;;
75417;SDS011;63997;52.112;5.420;2023-01-26T10:30:44;15.90;;;2.75;;
75417;SDS011;63997;52.112;5.420;2023-01-26T10:35:50;20.98;;;2.22;;
75417;SDS011;63997;52.112;5.420;2023-01-26T10:40:58;15.60;;;1.92;;
75417;SDS011;63997;52.112;5.420;2023-01-26T10:43:30;12.50;;;1.48;;
75417;SDS011;63997;52.112;5.420;2023-01-26T10:46:00;17.23;;;2.00;;
75417;SDS011;63997;52.112;5.420;2023-01-26T10:48:29;12.85;;;1.27;;
75417;SDS011;63997;52.112;5.420;2023-01-26T10:50:55;20.33;;;1.93;;
75417;SDS011;63997;52.112;5.420;2023-01-26T10:53:39;15.63;;;1.83;;
75417;SDS011;63997;52.112;5.420;2023-01-26T10:56:10;10.98;;;1.45;;
75417;SDS011;63997;52.112;5.420;2023-01-26T10:58:46;17.27;;;1.73;;
75417;SDS011;63997;52.112;5.420;2023-01-26T11:01:17;12.55;;;1.25;;
75417;SDS011;63997;52.112;5.420;2023-01-26T11:03:58;17.23;;;2.27;;
75417;SDS011;63997;52.112;5.420;2023-01-26T11:06:45;12.32;;;1.23;;
75417;SDS011;63997;52.112;5.420;2023-01-26T11:09:16;12.30;;;1.27;;
75417;SDS011;63997;52.112;5.420;2023-01-26T11:11:55;13.15;;;1.63;;
75417;SDS011;63997;52.112;5.420;2023-01-26T11:14:27;12.43;;;1.50;;
75417;SDS011;63997;52.112;5.420;2023-01-26T11:16:58;14.03;;;1.77;;
75417;SDS011;63997;52.112;5.420;2023-01-26T11:22:32;10.52;;;1.13;;
75417;SDS011;63997;52.112;5.420;2023-01-26T11:25:24;13.00;;;1.92;;
75417;SDS011;63997;52.112;5.420;2023-01-26T11:30:48;21.63;;;2.43;;
75417;SDS011;63997;52.112;5.420;2023-01-26T11:41:30;5.85;;;1.38;;
75417;SDS011;63997;52.112;5.420;2023-01-26T11:50:33;10.40;;;1.08;;
75417;SDS011;63997;52.112;5.420;2023-01-26T11:58:29;18.80;;;2.50;;
75417;SDS011;63997;52.112;5.420;2023-01-26T12:01:02;18.23;;;1.40;;
75417;SDS011;63997;52.112;5.420;2023-01-26T12:03:45;11.27;;;1.20;;
75417;SDS011;63997;52.112;5.420;2023-01-26T12:06:18;12.90;;;1.20;;
75417;SDS011;63997;52.112;5.420;2023-01-26T12:08:50;13.43;;;2.33;;
75417;SDS011;63997;52.112;5.420;2023-01-26T12:11:47;9.00;;;1.27;;
75417;SDS011;63997;52.112;5.420;2023-01-26T12:14:33;10.45;;;0.90;;
75417;SDS011;63997;52.112;5.420;2023-01-26T12:19:57;13.52;;;1.20;;
75417;SDS011;63997;52.112;5.420;2023-01-26T12:22:36;14.70;;;1.38;;
75417;SDS011;63997;52.112;5.420;2023-01-26T12:28:01;10.15;;;1.40;;
75417;SDS011;63997;52.112;5.420;2023-01-26T12:30:42;9.85;;;1.42;;
75417;SDS011;63997;52.112;5.420;2023-01-26T12:33:15;11.32;;;1.23;;
75417;SDS011;63997;52.112;5.420;2023-01-26T12:35:49;11.05;;;1.05;;
75417;SDS011;63997;52.112;5.420;2023-01-26T12:46:20;12.80;;;1.10;;
75417;SDS011;63997;52.112;5.420;2023-01-26T12:48:51;8.90;;;1.17;;
75417;SDS011;63997;52.112;5.420;2023-01-26T12:51:24;10.57;;;1.20;;
75417;SDS011;63997;52.112;5.420;2023-01-26T12:54:03;11.07;;;1.05;;
75417;SDS011;63997;52.112;5.420;2023-01-26T12:56:52;14.73;;;1.85;;
75417;SDS011;63997;52.112;5.420;2023-01-26T12:59:32;7.82;;;0.95;;
75417;SDS011;63997;52.112;5.420;2023-01-26T13:04:38;13.33;;;1.30;;
75417;SDS011;63997;52.112;5.420;2023-01-26T13:12:45;11.38;;;0.68;;
75417;SDS011;63997;52.112;5.420;2023-01-26T13:15:17;7.50;;;0.77;;
75417;SDS011;63997;52.112;5.420;2023-01-26T13:22:52;9.00;;;1.30;;
75417;SDS011;63997;52.112;5.420;2023-01-26T13:25:29;10.20;;;1.20;;
75417;SDS011;63997;52.112;5.420;2023-01-26T13:27:58;7.15;;;1.08;;
75417;SDS011;63997;52.112;5.420;2023-01-26T13:30:27;5.07;;;0.80;;
75417;SDS011;63997;52.112;5.420;2023-01-26T13:35:38;9.30;;;0.98;;
75417;SDS011;63997;52.112;5.420;2023-01-26T13:38:19;8.02;;;1.38;;
75417;SDS011;63997;52.112;5.420;2023-01-26T13:40:54;13.38;;;1.30;;
75417;SDS011;63997;52.112;5.420;2023-01-26T13:43:28;9.43;;;0.80;;
75417;SDS011;63997;52.112;5.420;2023-01-26T13:49:02;7.15;;;0.93;;
75417;SDS011;63997;52.112;5.420;2023-01-26T13:51:32;10.45;;;1.00;;
75417;SDS011;63997;52.112;5.420;2023-01-26T13:56:34;5.90;;;1.10;;
75417;SDS011;63997;52.112;5.420;2023-01-26T13:59:09;11.95;;;0.90;;
75417;SDS011;63997;52.112;5.420;2023-01-26T14:01:41;10.70;;;0.60;;
75417;SDS011;63997;52.112;5.420;2023-01-26T14:04:14;8.90;;;1.17;;
75417;SDS011;63997;52.112;5.420;2023-01-26T14:09:26;12.63;;;1.27;;
75417;SDS011;63997;52.112;5.420;2023-01-26T14:12:02;11.85;;;0.90;;
75417;SDS011;63997;52.112;5.420;2023-01-26T14:14:31;13.40;;;1.23;;
75417;SDS011;63997;52.112;5.420;2023-01-26T14:17:00;6.68;;;1.08;;
75417;SDS011;63997;52.112;5.420;2023-01-26T14:19:32;9.55;;;1.00;;
75417;SDS011;63997;52.112;5.420;2023-01-26T14:22:11;5.60;;;0.80;;
75417;SDS011;63997;52.112;5.420;2023-01-26T14:24:38;11.60;;;1.20;;
75417;SDS011;63997;52.112;5.420;2023-01-26T14:27:18;5.97;;;0.65;;
75417;SDS011;63997;52.112;5.420;2023-01-26T14:29:54;10.80;;;0.50;;
75417;SDS011;63997;52.112;5.420;2023-01-26T14:32:20;11.32;;;1.17;;
75417;SDS011;63997;52.112;5.420;2023-01-26T14:34:59;5.63;;;0.70;;
75417;SDS011;63997;52.112;5.420;2023-01-26T14:37:26;11.27;;;0.90;;
75417;SDS011;63997;52.112;5.420;2023-01-26T14:40:09;8.68;;;1.08;;
75417;SDS011;63997;52.112;5.420;2023-01-26T14:42:43;3.47;;;0.82;;
75417;SDS011;63997;52.112;5.420;2023-01-26T14:45:11;7.43;;;0.82;;
75417;SDS011;63997;52.112;5.420;2023-01-26T14:47:39;5.30;;;0.50;;
75417;SDS011;63997;52.112;5.420;2023-01-26T14:50:13;7.20;;;0.88;;
75417;SDS011;63997;52.112;5.420;2023-01-26T14:52:48;13.30;;;1.00;;
75417;SDS011;63997;52.112;5.420;2023-01-26T14:55:20;6.15;;;0.55;;
75417;SDS011;63997;52.112;5.420;2023-01-26T14:57:51;11.35;;;1.23;;
75417;SDS011;63997;52.112;5.420;2023-01-26T15:00:27;10.40;;;0.80;;
75417;SDS011;63997;52.112;5.420;2023-01-26T15:02:58;5.80;;;0.70;;
75417;SDS011;63997;52.112;5.420;2023-01-26T15:05:34;5.65;;;0.50;;
75417;SDS011;63997;52.112;5.420;2023-01-26T15:08:03;6.82;;;0.70;;
75417;SDS011;63997;52.112;5.420;2023-01-26T15:13:07;7.87;;;0.83;;
75417;SDS011;63997;52.112;5.420;2023-01-26T15:16:05;6.07;;;0.50;;
75417;SDS011;63997;52.112;5.420;2023-01-26T15:18:40;7.20;;;0.80;;
75417;SDS011;63997;52.112;5.420;2023-01-26T15:21:39;8.32;;;1.00;;
75417;SDS011;63997;52.112;5.420;2023-01-26T15:24:00;7.00;;;0.60;;
75417;SDS011;63997;52.112;5.420;2023-01-26T15:26:27;6.20;;;0.77;;
75417;SDS011;63997;52.112;5.420;2023-01-26T15:29:03;6.35;;;0.80;;
75417;SDS011;63997;52.112;5.420;2023-01-26T15:31:35;4.97;;;0.70;;
75417;SDS011;63997;52.112;5.420;2023-01-26T15:34:05;3.33;;;0.65;;
75417;SDS011;63997;52.112;5.420;2023-01-26T15:36:33;8.93;;;0.85;;
75417;SDS011;63997;52.112;5.420;2023-01-26T15:39:14;10.90;;;0.60;;
75417;SDS011;63997;52.112;5.420;2023-01-26T15:41:43;7.28;;;1.02;;
75417;SDS011;63997;52.112;5.420;2023-01-26T15:44:30;11.00;;;1.00;;
75417;SDS011;63997;52.112;5.420;2023-01-26T15:46:57;9.88;;;0.90;;
75417;SDS011;63997;52.112;5.420;2023-01-26T15:49:24;6.93;;;1.10;;
75417;SDS011;63997;52.112;5.420;2023-01-26T15:51:50;7.90;;;0.80;;
75417;SDS011;63997;52.112;5.420;2023-01-26T15:54:19;8.65;;;0.70;;
75417;SDS011;63997;52.112;5.420;2023-01-26T15:56:45;5.60;;;0.82;;
75417;SDS011;63997;52.112;5.420;2023-01-26T15:59:12;9.60;;;0.90;;
75417;SDS011;63997;52.112;5.420;2023-01-26T16:01:38;5.45;;;0.82;;
75417;SDS011;63997;52.112;5.420;2023-01-26T16:04:04;4.40;;;0.53;;
75417;SDS011;63997;52.112;5.420;2023-01-26T16:06:31;8.40;;;0.63;;
75417;SDS011;63997;52.112;5.420;2023-01-26T16:08:58;4.97;;;0.60;;
75417;SDS011;63997;52.112;5.420;2023-01-26T16:11:27;3.83;;;0.40;;
75417;SDS011;63997;52.112;5.420;2023-01-26T16:13:55;3.85;;;0.70;;
75417;SDS011;63997;52.112;5.420;2023-01-26T16:16:29;5.87;;;2.70;;
75417;SDS011;63997;52.112;5.420;2023-01-26T16:18:56;3.53;;;0.70;;